CheckWX is a tool to help pilots better visualize weather data.  It is not intended as a substitute for an official pre-flight weather briefing.

13:25:17 UTC

KHYW METAR
Conway-Horry County Airport
Conway, South Carolina, USA
Current

30 mins ago

KHYW 241255Z AUTO 24004KT 5SM HZ CLR 25/20 A3015 RMK AO2
Observed
May-24 @ 12:55 UTC
Wind
  • 240° at 4 KTS
Visibility
5 SM
Flight Rules
MVFR
Conditions
Haze
Cloud Levels
  • Clear skies
Temperature
25°C / 77°F
Dewpoint
20°C / 68°F
Humidity
74%
Altimeter
30.15" Hg
Pressure
1021.02 hPa
Previous

50 mins ago

KHYW 241235Z AUTO 26007KT 5SM HZ CLR 23/20 A3015 RMK AO2
Observed
May-24 @ 12:35 UTC
Wind
  • 260° at 7 KTS
Visibility
5 SM
Flight Rules
MVFR
Conditions
Haze
Cloud Levels
  • Clear skies
Temperature
23°C / 73°F
Dewpoint
20°C / 68°F
Humidity
83%
Altimeter
30.15" Hg
Pressure
1021.02 hPa
Previous

1 hour ago

KHYW 241215Z AUTO 24005KT 7SM CLR 23/20 A3015 RMK AO2
Observed
May-24 @ 12:15 UTC
Wind
  • 240° at 5 KTS
Visibility
7 SM
Flight Rules
VFR
Cloud Levels
  • Clear skies
Temperature
23°C / 73°F
Dewpoint
20°C / 68°F
Humidity
83%
Altimeter
30.15" Hg
Pressure
1021.02 hPa